Time;durP1;ratioP1;P1;durP2;ratioP2;P2;SDS_P1;SDS_P2;PMS_P1;PMS_P2;Temp;Humidity;BMP_temperature;BMP_pressure;BME280_temperature;BME280_humidity;BME280_pressure;Samples;Min_cycle;Max_cycle;Signal;HPM_P1;HPM_P2
2021/04/14 00:01:52;;;;;;;52.85;29.00;;;;;;;7.86;94.35;99365.44;1735778;82;20958;-63
2021/04/14 00:04:23;;;;;;;46.95;28.75;;;;;;;7.82;94.55;99367.16;1735910;82;21603;-63
2021/04/14 00:06:59;;;;;;;47.35;27.80;;;;;;;7.79;94.90;99368.57;1735623;82;21551;-63
2021/04/14 00:09:30;;;;;;;49.03;29.02;;;;;;;7.77;95.17;99371.34;1750466;81;22109;-63
2021/04/14 00:15:54;;;;;;;46.37;29.30;;;;;;;7.72;96.10;99367.34;1751563;80;21025;-65
2021/04/14 00:18:22;;;;;;;49.38;30.20;;;;;;;7.62;96.97;99368.33;1751578;82;20890;-65
2021/04/14 00:20:51;;;;;;;49.03;29.55;;;;;;;7.57;97.46;99367.05;1752764;81;21171;-65
2021/04/14 00:23:21;;;;;;;47.95;30.10;;;;;;;7.53;97.86;99367.40;1753098;81;22264;-67
2021/04/14 00:25:50;;;;;;;44.50;28.12;;;;;;;7.49;98.40;99366.41;1753069;81;21107;-65
2021/04/14 00:28:21;;;;;;;43.68;27.07;;;;;;;7.44;98.79;99365.94;1752977;81;21131;-64
2021/04/14 00:30:49;;;;;;;46.10;29.18;;;;;;;7.41;99.06;99358.90;1752921;81;21606;-66
2021/04/14 00:33:19;;;;;;;46.48;28.55;;;;;;;7.38;99.32;99358.94;1753002;80;21091;-64
2021/04/14 00:35:49;;;;;;;49.23;29.48;;;;;;;7.38;99.50;99359.50;1752873;81;22141;-64
2021/04/14 00:38:53;;;;;;;44.45;29.10;;;;;;;7.37;99.74;99358.69;1751627;80;21024;-64
2021/04/14 00:41:42;;;;;;;47.17;30.92;;;;;;;7.37;99.93;99357.88;1752447;81;21001;-64
2021/04/14 00:44:10;;;;;;;44.40;29.65;;;;;;;7.35;100.00;99352.71;1751389;81;20930;-65
2021/04/14 00:46:39;;;;;;;48.17;29.72;;;;;;;7.38;100.00;99366.32;1753083;81;20997;-64
2021/04/14 00:49:07;;;;;;;46.08;29.37;;;;;;;7.38;100.00;99371.78;1751944;80;22123;-65
2021/04/14 00:51:35;;;;;;;52.55;30.82;;;;;;;7.38;100.00;99377.25;1723879;81;21147;-66
2021/04/14 00:54:04;;;;;;;44.93;29.72;;;;;;;7.37;100.00;99379.17;1759267;81;21578;-66
2021/04/14 00:56:32;;;;;;;48.05;30.35;;;;;;;7.37;100.00;99379.17;1759188;81;20972;-63
2021/04/14 00:58:59;;;;;;;42.73;28.55;;;;;;;7.39;100.00;99376.14;1733083;81;21610;-67
2021/04/14 01:01:27;;;;;;;48.33;30.55;;;;;;;7.39;100.00;99373.41;1759257;81;21264;-66
2021/04/14 01:03:55;;;;;;;44.67;28.27;;;;;;;7.40;100.00;99373.11;1759657;81;21601;-66
2021/04/14 01:06:26;;;;;;;49.53;31.00;;;;;;;7.42;100.00;99367.34;1759662;80;20941;-65
2021/04/14 01:08:54;;;;;;;51.28;32.03;;;;;;;7.42;100.00;99362.70;1759688;80;20934;-66
2021/04/14 01:11:24;;;;;;;46.20;31.65;;;;;;;7.44;100.00;99355.57;1759653;81;20931;-65
2021/04/14 01:13:51;;;;;;;45.95;29.40;;;;;;;7.45;100.00;99350.36;1759068;81;21016;-65
2021/04/14 01:16:21;;;;;;;50.17;31.35;;;;;;;7.47;100.00;99349.52;1759719;81;21480;-65
2021/04/14 01:18:50;;;;;;;56.75;31.40;;;;;;;7.48;100.00;99346.48;1759730;81;20944;-64
2021/04/14 01:21:24;;;;;;;46.88;29.95;;;;;;;7.49;100.00;99343.19;1759127;80;21174;-65
2021/04/14 01:23:52;;;;;;;47.60;30.43;;;;;;;7.51;100.00;99338.23;1758097;81;20941;-64
2021/04/14 01:26:19;;;;;;;48.20;30.35;;;;;;;7.52;100.00;99337.09;1758130;81;22157;-65
2021/04/14 01:28:47;;;;;;;45.85;29.32;;;;;;;7.53;100.00;99333.25;1758010;81;21013;-64
2021/04/14 01:31:18;;;;;;;44.50;30.85;;;;;;;7.54;100.00;99328.86;1732615;81;21076;-64
2021/04/14 01:33:46;;;;;;;51.10;30.20;;;;;;;7.56;100.00;99330.73;1758084;81;21016;-65
2021/04/14 01:36:14;;;;;;;43.80;28.83;;;;;;;7.57;100.00;99334.27;1758163;81;21613;-65
2021/04/14 01:38:42;;;;;;;36.10;23.50;;;;;;;7.57;100.00;99331.55;1732159;81;21029;-65
2021/04/14 01:41:10;;;;;;;47.78;29.23;;;;;;;7.57;100.00;99328.81;1731959;81;21091;-65
2021/04/14 01:43:39;;;;;;;49.75;30.00;;;;;;;7.56;100.00;99324.45;1758117;81;21531;-65
2021/04/14 01:46:06;;;;;;;49.08;29.82;;;;;;;7.54;100.00;99321.22;1732229;81;20997;-65
2021/04/14 01:48:35;;;;;;;50.65;32.30;;;;;;;7.55;100.00;99320.11;1758187;81;21036;-65
2021/04/14 01:51:04;;;;;;;49.18;30.95;;;;;;;7.54;100.00;99309.73;1757956;81;21204;-65
2021/04/14 01:53:33;;;;;;;51.48;31.73;;;;;;;7.57;100.00;99312.42;1757868;81;20945;-65
2021/04/14 01:56:01;;;;;;;46.18;29.92;;;;;;;7.57;100.00;99315.97;1732182;81;21511;-62
2021/04/14 01:58:31;;;;;;;46.37;30.20;;;;;;;7.57;100.00;99311.87;1757592;81;20959;-63
2021/04/14 02:01:03;;;;;;;39.18;27.77;;;;;;;7.57;100.00;99311.06;1757499;81;21553;-64
2021/04/14 02:03:36;;;;;;;45.58;27.55;;;;;;;7.57;100.00;99311.06;1733788;81;21093;-62
2021/04/14 02:06:06;;;;;;;41.75;27.80;;;;;;;7.56;100.00;99313.53;1757974;80;21028;-64
2021/04/14 02:08:34;;;;;;;37.63;25.25;;;;;;;7.54;100.00;99310.30;1758541;80;20981;-64
2021/04/14 02:11:01;;;;;;;46.05;28.77;;;;;;;7.52;100.00;99312.52;1757953;80;21056;-64
2021/04/14 02:13:32;;;;;;;44.63;27.75;;;;;;;7.49;100.00;99310.42;1758015;81;21068;-65
2021/04/14 02:16:00;;;;;;;47.38;27.13;;;;;;;7.48;100.00;99307.43;1758026;81;21318;-65
2021/04/14 02:18:28;;;;;;;44.40;27.42;;;;;;;7.44;100.00;99312.69;1757992;80;20969;-65
2021/04/14 02:20:56;;;;;;;43.70;27.22;;;;;;;7.43;100.00;99304.79;1757977;80;21151;-65
2021/04/14 02:23:33;;;;;;;41.30;26.12;;;;;;;7.42;100.00;99299.07;1758312;81;21071;-63
2021/04/14 02:26:04;;;;;;;40.90;25.62;;;;;;;7.38;100.00;99297.50;1759622;80;21467;-63
2021/04/14 02:28:31;;;;;;;41.53;27.58;;;;;;;7.36;100.00;99292.89;1758041;81;21379;-63
2021/04/14 02:31:00;;;;;;;45.88;29.40;;;;;;;7.35;100.00;99294.55;1757928;81;20945;-63
2021/04/14 02:33:28;;;;;;;35.28;24.98;;;;;;;7.34;100.00;99288.84;1757980;81;21006;-64
2021/04/14 02:35:56;;;;;;;43.73;28.05;;;;;;;7.33;100.00;99281.20;1758004;81;20997;-64
2021/04/14 02:38:24;;;;;;;41.53;27.60;;;;;;;7.32;100.00;99284.23;1758092;80;21063;-65
2021/04/14 02:40:52;;;;;;;45.70;27.65;;;;;;;7.30;100.00;99280.44;1758168;81;21198;-65
2021/04/14 02:43:21;;;;;;;45.50;27.82;;;;;;;7.28;100.00;99279.92;1758108;80;21032;-65
2021/04/14 02:45:49;;;;;;;44.13;30.08;;;;;;;7.27;100.00;99276.94;1758271;81;21005;-65
2021/04/14 02:48:17;;;;;;;38.40;26.70;;;;;;;7.26;100.00;99273.95;1758143;81;21135;-65
2021/04/14 02:50:45;;;;;;;43.05;26.12;;;;;;;7.25;100.00;99271.78;1758132;80;21186;-64
2021/04/14 02:53:13;;;;;;;43.17;27.75;;;;;;;7.26;100.00;99270.67;1757959;81;21210;-65
2021/04/14 02:55:41;;;;;;;38.53;25.60;;;;;;;7.24;100.00;99273.45;1758076;80;21528;-65
2021/04/14 02:58:10;;;;;;;36.20;25.70;;;;;;;7.23;100.00;99274.55;1759157;81;21063;-65
2021/04/14 03:00:38;;;;;;;42.60;26.68;;;;;;;7.22;100.00;99272.94;1759775;80;21032;-65
2021/04/14 03:03:07;;;;;;;40.25;25.05;;;;;;;7.21;100.00;99272.68;1759742;81;20945;-65
2021/04/14 03:05:36;;;;;;;39.23;25.97;;;;;;;7.18;100.00;99271.36;1759776;81;21365;-63
2021/04/14 03:08:04;;;;;;;41.33;26.17;;;;;;;7.16;100.00;99277.67;1759634;81;20940;-63
2021/04/14 03:10:32;;;;;;;39.23;24.80;;;;;;;7.14;100.00;99281.26;1759904;80;20925;-64
2021/04/14 03:13:02;;;;;;;38.50;26.62;;;;;;;7.10;100.00;99284.88;1733935;81;21083;-64
2021/04/14 03:15:36;;;;;;;37.90;25.20;;;;;;;7.06;100.00;99281.94;1759723;81;20937;-63
2021/04/14 03:18:04;;;;;;;38.53;24.93;;;;;;;7.05;100.00;99285.78;1760065;80;21368;-64
2021/04/14 03:20:33;;;;;;;40.40;25.37;;;;;;;7.03;100.00;99285.82;1759753;80;21733;-64
2021/04/14 03:23:02;;;;;;;37.65;23.73;;;;;;;7.01;100.00;99282.03;1759706;81;20933;-65
2021/04/14 03:25:33;;;;;;;39.73;24.25;;;;;;;6.99;100.00;99273.33;1759709;81;21067;-65
2021/04/14 03:28:02;;;;;;;34.20;23.50;;;;;;;6.98;100.00;99275.80;1759830;81;21085;-65
2021/04/14 03:30:29;;;;;;;37.98;22.93;;;;;;;6.96;100.00;99276.09;1734077;81;21206;-65
2021/04/14 03:32:57;;;;;;;43.35;24.85;;;;;;;6.96;100.00;99273.92;1759554;81;21150;-66
2021/04/14 03:35:27;;;;;;;33.85;22.22;;;;;;;6.95;100.00;99277.20;1759776;81;21531;-63
2021/04/14 03:37:54;;;;;;;41.55;22.37;;;;;;;6.95;100.00;99276.39;1733978;81;20913;-63
2021/04/14 03:40:22;;;;;;;34.58;21.48;;;;;;;6.93;100.00;99269.87;1759778;80;21060;-63
2021/04/14 03:42:52;;;;;;;29.70;19.35;;;;;;;6.95;100.00;99276.39;1759747;81;21181;-64
2021/04/14 03:45:26;;;;;;;30.80;19.00;;;;;;;6.95;100.00;99276.39;1759819;80;21004;-63
2021/04/14 03:47:51;;;;;;;29.85;18.35;;;;;;;6.96;100.00;99272.55;1759698;81;21154;-63
2021/04/14 03:50:20;;;;;;;35.90;20.92;;;;;;;6.96;100.00;99278.02;1758683;81;21118;-71
2021/04/14 03:52:48;;;;;;;31.40;18.77;;;;;;;6.95;100.00;99273.11;1758895;81;21258;-70
2021/04/14 03:55:19;;;;;;;32.67;19.17;;;;;;;6.95;100.00;99276.39;1756173;81;21113;-65
2021/04/14 03:57:46;;;;;;;28.95;18.02;;;;;;;6.95;100.00;99270.94;1770250;80;21132;-67
2021/04/14 04:00:15;;;;;;;30.48;17.70;;;;;;;6.94;100.00;99280.23;1787190;80;20914;-66
2021/04/14 04:02:43;;;;;;;32.20;17.85;;;;;;;6.95;100.00;99280.48;1787329;80;20958;-66
2021/04/14 04:05:11;;;;;;;27.50;16.45;;;;;;;6.96;100.00;99287.56;1787311;80;21071;-67
2021/04/14 04:07:39;;;;;;;27.80;17.07;;;;;;;6.95;99.99;99291.41;1787396;79;22220;-69
2021/04/14 04:10:09;;;;;;;31.77;17.02;;;;;;;6.94;98.83;99296.61;1787277;80;21009;-66
2021/04/14 04:12:36;;;;;;;24.82;15.63;;;;;;;6.93;97.92;99301.84;1787210;80;21132;-67
2021/04/14 04:15:11;;;;;;;27.75;16.25;;;;;;;6.93;97.62;99296.38;1787301;79;21108;-66
2021/04/14 04:17:35;;;;;;;28.30;16.10;;;;;;;6.94;97.63;99294.69;1787002;80;21152;-66
2021/04/14 04:20:07;;;;;;;25.20;16.25;;;;;;;6.95;96.49;99290.04;1787329;80;21210;-65
2021/04/14 04:22:34;;;;;;;26.15;16.00;;;;;;;6.95;96.28;99290.85;1787417;80;21501;-65
2021/04/14 04:25:03;;;;;;;23.40;14.50;;;;;;;6.95;96.20;99288.12;1787306;80;21077;-66
2021/04/14 04:27:31;;;;;;;28.35;14.93;;;;;;;6.96;95.61;99293.02;1787301;79;21033;-67
2021/04/14 04:29:59;;;;;;;25.72;13.48;;;;;;;6.94;94.85;99284.33;1787350;79;21152;-65
2021/04/14 04:32:26;;;;;;;20.62;13.75;;;;;;;6.93;93.62;99286.83;1787301;80;21378;-70
2021/04/14 04:34:56;;;;;;;23.12;13.95;;;;;;;6.92;91.49;99283.84;1787121;80;21073;-70
2021/04/14 04:37:23;;;;;;;24.45;14.13;;;;;;;6.92;91.49;99283.84;1787037;80;20891;-67
2021/04/14 04:39:51;;;;;;;22.20;13.48;;;;;;;6.93;91.41;99290.92;1787290;80;21064;-67
2021/04/14 04:42:19;;;;;;;24.23;14.03;;;;;;;6.93;90.52;99295.80;1787317;80;21132;-65
2021/04/14 04:44:47;;;;;;;29.85;14.35;;;;;;;6.92;89.62;99290.66;1787329;80;21330;-67
2021/04/14 04:47:15;;;;;;;24.75;15.20;;;;;;;6.91;89.64;99295.31;1787227;80;21061;-70
2021/04/14 04:49:43;;;;;;;23.00;14.10;;;;;;;6.90;89.05;99296.42;1786733;79;20926;-77
2021/04/14 04:52:12;;;;;;;24.70;14.70;;;;;;;6.89;88.60;99297.53;1787080;80;21076;-74
2021/04/14 04:54:41;;;;;;;22.87;14.00;;;;;;;6.88;88.39;99297.27;1792121;80;21124;-71
2021/04/14 04:57:08;;;;;;;23.87;15.53;;;;;;;6.88;87.81;99297.83;1793206;80;21322;-72
2021/04/14 04:59:36;;;;;;;23.55;15.40;;;;;;;6.86;87.75;99300.84;1793297;80;20982;-70
2021/04/14 05:02:04;;;;;;;24.52;15.45;;;;;;;6.86;87.75;99300.84;1793360;80;20926;-73
2021/04/14 05:04:31;;;;;;;25.75;16.25;;;;;;;6.88;87.90;99310.10;1793404;80;21485;-73
2021/04/14 05:06:59;;;;;;;26.05;17.48;;;;;;;6.89;87.63;99312.53;1793232;78;21616;-70
2021/04/14 05:09:26;;;;;;;29.52;17.02;;;;;;;6.89;87.63;99312.53;1793403;80;21429;-69
2021/04/14 05:11:54;;;;;;;31.33;18.02;;;;;;;6.92;87.19;99311.12;1793341;80;20954;-72
2021/04/14 05:14:23;;;;;;;29.85;17.92;;;;;;;6.93;87.07;99314.12;1793260;80;20922;-68
2021/04/14 05:16:53;;;;;;;30.15;16.75;;;;;;;6.96;85.92;99320.31;1763042;80;21039;-77
2021/04/14 05:19:22;;;;;;;28.52;17.27;;;;;;;6.98;86.17;99324.92;1760379;80;20931;-77
2021/04/14 05:21:51;;;;;;;30.27;17.62;;;;;;;6.99;85.11;99325.18;1760471;80;20927;-79
2021/04/14 05:24:20;;;;;;;27.37;16.15;;;;;;;6.99;85.21;99324.38;1760416;81;20943;-70
2021/04/14 05:26:48;;;;;;;25.75;16.97;;;;;;;6.97;84.28;99321.94;1761053;81;20990;-76
2021/04/14 05:29:15;;;;;;;27.75;17.67;;;;;;;6.94;83.88;99316.52;1760371;81;21089;-73
2021/04/14 05:31:43;;;;;;;31.05;19.82;;;;;;;6.98;84.21;99317.29;1745604;81;21053;-87
2021/04/14 05:34:11;;;;;;;30.45;19.37;;;;;;;6.99;84.32;99320.27;1760399;81;21444;-77
2021/04/14 05:36:39;;;;;;;29.98;18.27;;;;;;;7.00;83.57;99319.98;1760493;81;21136;-74
2021/04/14 05:39:07;;;;;;;36.60;19.12;;;;;;;7.03;83.26;99318.57;1760350;81;21116;-74
2021/04/14 05:41:35;;;;;;;31.77;19.12;;;;;;;7.04;83.36;99314.19;1760453;80;21056;-75
2021/04/14 05:44:02;;;;;;;30.17;20.43;;;;;;;7.08;83.05;99315.20;1760476;81;20935;-74
2021/04/14 05:46:30;;;;;;;34.13;20.15;;;;;;;7.11;83.03;99314.61;1760331;80;21649;-75
2021/04/14 05:48:58;;;;;;;41.48;25.72;;;;;;;7.15;83.12;99316.19;1760344;81;20970;-78
2021/04/14 05:51:29;;;;;;;40.52;23.90;;;;;;;7.20;82.70;99324.30;1760435;81;21632;-75
2021/04/14 05:53:56;;;;;;;27.45;18.02;;;;;;;7.24;82.91;99319.30;1759056;81;21137;-72
2021/04/14 05:56:26;;;;;;;26.20;17.82;;;;;;;7.28;83.01;99328.52;1757334;80;21596;-71
2021/04/14 05:58:53;;;;;;;33.40;20.52;;;;;;;7.31;82.50;99329.84;1758670;81;21216;-72
2021/04/14 06:01:24;;;;;;;37.40;25.92;;;;;;;7.34;82.40;99329.80;1758756;81;21041;-72
2021/04/14 06:03:52;;;;;;;36.08;22.65;;;;;;;7.36;81.92;99333.05;1758552;81;21465;-75
2021/04/14 06:06:19;;;;;;;48.13;30.68;;;;;;;7.37;80.72;99331.37;1748106;82;21020;-71
2021/04/14 06:08:46;;;;;;;41.88;28.75;;;;;;;7.38;80.60;99334.92;1742412;82;21580;-74
2021/04/14 06:11:14;;;;;;;81.92;61.25;;;;;;;7.36;80.34;99334.41;1755695;81;21364;-73
2021/04/14 06:13:41;;;;;;;46.68;30.92;;;;;;;7.35;79.52;99335.52;1755445;81;21167;-73
2021/04/14 06:16:10;;;;;;;35.80;21.93;;;;;;;7.35;80.17;99332.79;1755900;80;20989;-82
2021/04/14 06:18:37;;;;;;;32.40;20.43;;;;;;;7.35;79.78;99324.04;1755985;81;21003;-80
2021/04/14 06:21:05;;;;;;;31.10;20.25;;;;;;;7.37;80.61;99325.10;1755890;80;21472;-77
2021/04/14 06:23:33;;;;;;;47.98;27.20;;;;;;;7.40;80.19;99323.95;1755798;81;21274;-73
2021/04/14 06:28:37;;;;;;;46.83;29.77;;;;;;;7.41;79.00;99331.03;1756187;81;21099;-76
2021/04/14 06:31:06;;;;;;;37.95;22.87;;;;;;;7.40;79.80;99330.78;1755952;81;21155;-74
2021/04/14 06:33:37;;;;;;;35.33;21.55;;;;;;;7.44;79.97;99329.63;1756032;81;21055;-73
2021/04/14 06:36:07;;;;;;;34.65;22.65;;;;;;;7.42;79.03;99327.75;1729070;81;21385;-74
2021/04/14 06:38:40;;;;;;;32.05;19.35;;;;;;;7.39;78.82;99337.35;1755411;80;21511;-75
2021/04/14 06:44:23;;;;;;;33.00;20.37;;;;;;;7.36;79.10;99322.13;1754306;81;21079;-71
2021/04/14 06:46:52;;;;;;;38.33;23.10;;;;;;;7.32;79.44;99330.66;1753778;81;21056;-73
2021/04/14 06:49:53;;;;;;;43.92;28.10;;;;;;;7.28;79.54;99327.71;1739024;81;21379;-72
2021/04/14 06:52:30;;;;;;;47.00;33.97;;;;;;;7.28;79.85;99329.88;1723025;83;20963;-68
2021/04/14 06:55:14;;;;;;;57.58;36.90;;;;;;;7.27;80.27;99330.99;1752872;80;21143;-70
2021/04/14 06:57:47;;;;;;;72.67;49.60;;;;;;;7.29;80.52;99333.42;1768268;80;20938;-68
2021/04/14 07:00:33;;;;;;;59.55;36.15;;;;;;;7.30;80.49;99330.95;1743676;81;20949;-69
2021/04/14 07:03:18;;;;;;;53.05;32.70;;;;;;;7.31;80.45;99324.38;1726022;83;22342;-69
2021/04/14 07:05:58;;;;;;;57.55;40.48;;;;;;;7.36;80.69;99329.75;1752413;80;21061;-70
2021/04/14 07:08:30;;;;;;;65.00;40.48;;;;;;;7.42;80.11;99323.66;1725918;81;21174;-69
2021/04/14 07:11:00;;;;;;;56.20;39.10;;;;;;;7.43;79.67;99328.00;1752201;80;21122;-69
2021/04/14 07:13:29;;;;;;;64.30;38.95;;;;;;;7.43;79.45;99321.98;1755271;81;21115;-69
2021/04/14 07:16:30;;;;;;;57.88;35.50;;;;;;;7.45;79.96;99323.05;1755982;81;21193;-71
2021/04/14 07:19:13;;;;;;;;;;;;;;;7.50;80.05;99317.50;1758495;81;20952;-72
2021/04/14 07:22:01;;;;;;;67.40;35.23;;;;;;;7.57;79.74;99327.45;1756076;81;20507;-69
2021/04/14 07:24:36;;;;;;;78.55;50.17;;;;;;;7.60;79.87;99326.29;1755977;81;21016;-70
2021/04/14 07:27:20;;;;;;;57.27;37.23;;;;;;;7.68;80.15;99317.95;1755999;80;21585;-77
2021/04/14 07:29:53;;;;;;;;;;;;;;;7.78;80.05;99320.50;1758492;81;21864;-68
2021/04/14 07:32:42;;;;;;;49.42;29.18;;;;;;;7.86;79.52;99318.98;1756096;81;20636;-69
2021/04/14 07:35:34;;;;;;;51.15;31.55;;;;;;;7.88;79.48;99320.30;1755956;81;20957;-67
2021/04/14 07:38:27;;;;;;;48.28;26.35;;;;;;;7.91;79.21;99318.88;1755484;81;21178;-80
2021/04/14 07:41:50;;;;;;;44.65;23.80;;;;;;;7.97;78.69;99319.59;1755763;81;21116;-72
2021/04/14 07:44:25;;;;;;;54.27;36.03;;;;;;;8.01;78.85;99318.68;1755966;81;21326;-67
2021/04/14 07:46:53;;;;;;;56.75;37.28;;;;;;;8.08;79.18;99316.91;1755113;81;21012;-67
2021/04/14 07:49:21;;;;;;;49.23;26.27;;;;;;;8.18;79.57;99316.11;1754178;81;21622;-83
2021/04/14 07:51:49;;;;;;;47.40;26.40;;;;;;;8.29;78.59;99318.89;1729214;81;21481;-69
2021/04/14 07:54:18;;;;;;;55.12;34.45;;;;;;;8.36;78.12;99321.80;1754819;81;21136;-77
2021/04/14 07:56:54;;;;;;;59.38;37.85;;;;;;;8.39;77.95;99328.83;1756107;80;21251;-76
2021/04/14 07:59:32;;;;;;;51.42;31.80;;;;;;;8.42;77.84;99328.78;1755302;80;21147;-76
2021/04/14 08:02:07;;;;;;;53.02;35.28;;;;;;;8.47;78.79;99325.94;1749511;80;21546;-74
2021/04/14 08:04:46;;;;;;;44.88;27.62;;;;;;;8.55;77.60;99332.86;1739063;81;21480;-68
2021/04/14 08:07:21;;;;;;;46.63;28.60;;;;;;;8.57;77.58;99326.52;1751507;81;21194;-68
2021/04/14 08:09:55;;;;;;;50.63;32.28;;;;;;;8.65;77.47;99337.86;1759250;81;22249;-68
2021/04/14 08:12:28;;;;;;;43.55;26.85;;;;;;;8.66;76.22;99327.97;1756765;80;21035;-70
2021/04/14 08:15:17;;;;;;;50.70;31.20;;;;;;;8.65;76.74;99333.20;1757721;80;21601;-69
2021/04/14 08:17:46;;;;;;;38.17;23.60;;;;;;;8.72;77.44;99335.48;1758734;80;21178;-67
2021/04/14 08:20:25;;;;;;;32.25;20.57;;;;;;;8.83;77.49;99328.66;1759110;80;21080;-67
2021/04/14 08:23:10;;;;;;;32.78;20.90;;;;;;;8.94;77.57;99325.38;1758986;80;21195;-68
2021/04/14 08:25:51;;;;;;;33.00;20.02;;;;;;;9.06;76.55;99328.92;1758214;81;21649;-69
2021/04/14 08:31:35;;;;;;;38.58;23.12;;;;;;;9.38;75.41;99316.88;1864160;76;22757;-71
2021/04/14 08:34:15;;;;;;;33.92;20.27;;;;;;;9.52;75.23;99316.23;1820018;78;21538;-67
2021/04/14 08:37:10;;;;;;;36.68;21.35;;;;;;;9.74;74.38;99322.23;1809437;79;20915;-69
2021/04/14 08:39:44;;;;;;;35.68;21.00;;;;;;;9.91;73.22;99319.53;1825221;77;21005;-69
2021/04/14 08:42:17;;;;;;;33.73;20.23;;;;;;;10.08;73.60;99312.50;1818571;78;21660;-69
2021/04/14 08:44:49;;;;;;;29.45;19.23;;;;;;;10.22;70.78;99304.42;1796943;79;20952;-69
2021/04/14 08:47:30;;;;;;;32.42;18.87;;;;;;;10.32;70.95;99307.44;1816839;79;21011;-69
2021/04/14 08:50:09;;;;;;;30.80;20.15;;;;;;;10.41;70.71;99310.17;1838766;77;21429;-68
2021/04/14 08:52:41;;;;;;;30.50;19.98;;;;;;;10.46;68.98;99313.57;1821271;78;20923;-74
2021/04/14 08:55:10;;;;;;;38.98;19.82;;;;;;;10.45;69.08;99306.47;1842323;77;21052;-69
2021/04/14 08:57:39;;;;;;;35.13;20.82;;;;;;;10.45;68.95;99303.72;1830574;76;21522;-70
2021/04/14 09:00:09;;;;;;;36.68;20.57;;;;;;;10.52;69.57;99304.05;1822506;76;21079;-67
2021/04/14 09:02:36;;;;;;;36.55;20.32;;;;;;;10.69;69.41;99303.27;1818405;78;22364;-68
2021/04/14 09:05:09;;;;;;;34.92;19.05;;;;;;;10.87;68.10;99296.65;1822575;76;21183;-68
2021/04/14 09:07:37;;;;;;;44.80;22.60;;;;;;;10.99;68.36;99287.73;1828782;77;21100;-69
2021/04/14 09:10:10;;;;;;;30.60;19.60;;;;;;;11.15;68.82;99291.59;1825098;77;21167;-68
2021/04/14 09:12:49;;;;;;;31.90;19.20;;;;;;;11.36;68.21;99284.84;1827363;77;21049;-68
2021/04/14 09:15:17;;;;;;;31.82;20.70;;;;;;;11.58;67.52;99281.04;1825289;77;22359;-68
2021/04/14 09:18:00;;;;;;;27.95;19.37;;;;;;;11.76;66.89;99277.09;1830053;77;21188;-68
2021/04/14 09:20:32;;;;;;;40.23;20.37;;;;;;;11.94;65.83;99276.48;1825243;77;21082;-68
2021/04/14 09:23:13;;;;;;;25.70;16.60;;;;;;;12.14;65.30;99271.57;1820853;77;21153;-71
2021/04/14 09:25:49;;;;;;;30.55;18.92;;;;;;;12.41;63.22;99270.84;1826589;77;21053;-71
2021/04/14 09:28:33;;;;;;;27.20;18.23;;;;;;;12.60;62.25;99267.06;1824047;77;22147;-74
2021/04/14 09:31:15;;;;;;;31.52;17.90;;;;;;;12.84;62.14;99268.54;1824820;77;21169;-71
2021/04/14 09:33:47;;;;;;;37.28;18.15;;;;;;;13.27;61.07;99260.47;1833542;77;21211;-71
2021/04/14 09:36:31;;;;;;;23.18;16.67;;;;;;;13.71;61.84;99250.54;1796481;77;21151;-68
2021/04/14 09:39:10;;;;;;;25.08;15.05;;;;;;;14.20;58.65;99253.27;1827357;77;21180;-68
2021/04/14 09:41:38;;;;;;;28.20;16.90;;;;;;;14.83;56.59;99253.60;1792712;77;21368;-69
2021/04/14 09:44:33;;;;;;;25.55;15.98;;;;;;;15.39;54.53;99248.83;1819225;77;21544;-67
2021/04/14 09:47:21;;;;;;;28.60;16.27;;;;;;;15.66;51.63;99241.63;1826740;77;21549;-71
2021/04/14 09:49:50;;;;;;;31.17;16.32;;;;;;;15.96;51.81;99235.05;1821718;77;21080;-70
2021/04/14 09:52:36;;;;;;;24.65;15.25;;;;;;;16.30;51.07;99225.72;1829387;77;21603;-68
2021/04/14 09:55:09;;;;;;;20.62;13.50;;;;;;;16.64;50.02;99226.88;1828844;77;21368;-68
2021/04/14 09:57:42;;;;;;;25.48;15.10;;;;;;;17.06;47.46;99215.27;1826356;77;21163;-67
2021/04/14 10:00:31;;;;;;;23.02;15.15;;;;;;;17.35;45.77;99217.16;1824695;77;21025;-70
2021/04/14 10:03:02;;;;;;;22.40;14.15;;;;;;;17.36;44.97;99211.24;1826255;77;21096;-67
2021/04/14 10:05:30;;;;;;;21.87;13.68;;;;;;;17.36;47.86;99207.67;1831187;77;21170;-68
2021/04/14 10:07:59;;;;;;;19.60;12.60;;;;;;;17.56;45.29;99206.45;1800686;77;21414;-73
2021/04/14 10:10:27;;;;;;;16.95;12.25;;;;;;;17.60;44.17;99201.76;1829145;77;20938;-69
2021/04/14 10:12:56;;;;;;;19.82;12.18;;;;;;;17.69;44.02;99195.98;1829290;77;21001;-72
2021/04/14 10:15:32;;;;;;;17.00;10.28;;;;;;;17.73;41.91;99210.73;1826793;77;21236;-71
2021/04/14 10:18:06;;;;;;;19.75;12.40;;;;;;;17.77;43.56;99189.38;1825356;77;21172;-72
2021/04/14 10:20:38;;;;;;;18.77;11.45;;;;;;;17.78;41.50;99193.17;1823321;77;21039;-73
2021/04/14 10:23:14;;;;;;;19.32;10.90;;;;;;;17.50;41.84;99185.72;1831152;77;21057;-68
2021/04/14 10:25:41;;;;;;;25.27;13.03;;;;;;;17.38;41.92;99186.70;1816690;77;20978;-68
2021/04/14 10:28:17;;;;;;;15.55;10.13;;;;;;;17.44;40.42;99185.81;1839910;77;21647;-70
2021/04/14 10:30:50;;;;;;;22.15;12.88;;;;;;;17.41;39.73;99181.00;1846271;77;21021;-70
2021/04/14 10:33:21;;;;;;;27.25;13.20;;;;;;;17.60;40.74;99186.48;1830041;77;21015;-68
2021/04/14 10:35:50;;;;;;;26.25;12.10;;;;;;;17.97;39.11;99185.89;1822293;77;21596;-68
2021/04/14 10:38:32;;;;;;;19.27;10.78;;;;;;;18.04;39.15;99180.45;1823450;77;20916;-66
2021/04/14 10:41:02;;;;;;;14.43;9.30;;;;;;;18.04;38.16;99181.83;1825211;77;21200;-66
2021/04/14 10:43:30;;;;;;;20.52;11.12;;;;;;;18.03;39.77;99176.06;1826558;77;21197;-67
2021/04/14 10:46:27;;;;;;;22.25;12.00;;;;;;;18.31;38.82;99186.20;1825357;77;21369;-67
2021/04/14 10:49:03;;;;;;;17.15;10.60;;;;;;;18.39;38.64;99174.59;1828222;77;20962;-66
2021/04/14 10:51:41;;;;;;;28.05;13.98;;;;;;;18.30;37.81;99176.85;1834377;77;20982;-69
2021/04/14 10:54:11;;;;;;;31.10;12.58;;;;;;;17.93;38.51;99185.03;1829186;77;20923;-68
2021/04/14 10:56:39;;;;;;;17.27;10.90;;;;;;;17.53;39.42;99180.02;1829155;77;20879;-69
2021/04/14 10:59:11;;;;;;;28.38;12.25;;;;;;;17.50;40.32;99179.59;1827936;77;21531;-68
2021/04/14 11:01:45;;;;;;;38.35;12.10;;;;;;;17.63;39.76;99180.20;1802889;76;21164;-69
2021/04/14 11:04:36;;;;;;;25.68;13.00;;;;;;;17.76;38.51;99174.69;1833115;76;21511;-66
2021/04/14 11:07:09;;;;;;;20.80;10.48;;;;;;;17.64;38.91;99169.89;1834261;77;21144;-69
2021/04/14 11:09:41;;;;;;;36.48;13.15;;;;;;;17.33;39.69;99173.76;1830388;77;21176;-68
2021/04/14 11:12:16;;;;;;;24.05;12.55;;;;;;;17.15;41.11;99179.78;1828972;77;21140;-67
2021/04/14 11:14:55;;;;;;;23.65;12.53;;;;;;;17.00;40.65;99175.14;1826853;77;20993;-67
2021/04/14 11:17:29;;;;;;;19.45;10.93;;;;;;;16.71;40.59;99173.00;1820143;77;21139;-67
2021/04/14 11:20:07;;;;;;;21.62;11.60;;;;;;;16.48;41.03;99176.47;1821096;77;21349;-66
2021/04/14 11:22:45;;;;;;;20.30;11.40;;;;;;;16.22;41.54;99170.75;1830141;77;21112;-66
2021/04/14 11:25:35;;;;;;;20.97;12.93;;;;;;;16.01;42.90;99173.07;1820971;78;22727;-69
2021/04/14 11:28:07;;;;;;;21.62;11.63;;;;;;;15.96;43.16;99170.58;1820609;77;20918;-68
2021/04/14 11:30:56;;;;;;;22.07;11.38;;;;;;;15.89;43.37;99162.91;1825011;77;21033;-70
2021/04/14 11:33:40;;;;;;;18.92;10.88;;;;;;;15.78;44.29;99163.24;1825061;77;21068;-70
2021/04/14 11:36:26;;;;;;;25.05;12.70;;;;;;;15.77;44.14;99166.59;1825265;77;21555;-70
2021/04/14 11:39:12;;;;;;;21.23;12.33;;;;;;;15.85;45.20;99160.64;1823055;77;21812;-70
2021/04/14 11:41:42;;;;;;;24.50;12.85;;;;;;;15.98;44.78;99157.98;1784424;77;21001;-68
2021/04/14 11:44:26;;;;;;;27.48;12.90;;;;;;;15.99;44.10;99163.74;1823612;77;20990;-70
2021/04/14 11:46:57;;;;;;;17.45;10.80;;;;;;;15.90;43.77;99152.64;1793191;77;21199;-68
2021/04/14 11:49:33;;;;;;;20.95;12.78;;;;;;;15.84;44.15;99148.77;1834667;77;21610;-68
2021/04/14 11:52:24;;;;;;;19.52;10.55;;;;;;;16.15;44.03;99146.50;1834707;77;21187;-69
2021/04/14 11:54:57;;;;;;;20.92;12.07;;;;;;;16.59;43.29;99142.06;1789252;79;20997;-68
2021/04/14 11:57:27;;;;;;;19.60;11.97;;;;;;;16.77;42.30;99141.83;1821586;78;21533;-74
2021/04/14 12:00:21;;;;;;;22.35;11.73;;;;;;;16.65;41.96;99137.86;1834033;78;21526;-75